Forside
METAR-TAF:

METAR-TAF

Lufthavne :

Merimbula, Australien

Breddekreds: 36-54-31S, længdekreds: 149-54-05E, højde: 2 m

Aktuelle vejr

Denne rapport blev lavet for 45 minutter siden, kl. 15:00 UTC
Vind 8 kt fra sydsydvest
Temperatur 15°C
Fugtighed 63%
Tryk 1018 hPa
Sigt 10 km eller mere
Spredte skyer i en højde af 3700 ft
Overskyet i en højde af 5400 ft

METAR: YMER 231500Z AUTO 20008KT 9999 // SCT037 OVC054 15/08 Q1018

Tid: 02:45 (15:45 UTC)


TAF: fraværende

Vejrobservationer og prognoser fra mere end 4000 lufthavne (METAR og TAF).

De gule og røde prikker repræsenterer de meteorologiske stationer.

Flyt musen over at se navnet på stationen.

Så klik over at se vejr observationer og prognoser.

At skifte det kort: Klik på de grønne knapper med et sort kors for at zoome ind; på den grønne knap med en bindestreg for at zoome ud; eller på de grønne pile for tilstødende kort.


METAR-TAF: